sensor_id;sensor_type;location;lat;lon;timestamp;temperature;humidity
63202;DHT22;49296;48.188;11.566;2022-10-16T00:02:17;16.35;75.47
63202;DHT22;49296;48.188;11.566;2022-10-16T00:04:43;16.35;75.47
63202;DHT22;49296;48.188;11.566;2022-10-16T00:07:10;16.39;75.37
63202;DHT22;49296;48.188;11.566;2022-10-16T00:09:36;16.35;75.53
63202;DHT22;49296;48.188;11.566;2022-10-16T00:12:03;16.35;75.43
63202;DHT22;49296;48.188;11.566;2022-10-16T00:14:31;16.30;75.48
63202;DHT22;49296;48.188;11.566;2022-10-16T00:16:59;16.30;75.44
63202;DHT22;49296;48.188;11.566;2022-10-16T00:19:26;16.32;75.40
63202;DHT22;49296;48.188;11.566;2022-10-16T00:21:52;16.21;75.63
63202;DHT22;49296;48.188;11.566;2022-10-16T00:24:18;16.28;75.45
63202;DHT22;49296;48.188;11.566;2022-10-16T00:26:45;16.29;75.40
63202;DHT22;49296;48.188;11.566;2022-10-16T00:29:11;16.32;75.25
63202;DHT22;49296;48.188;11.566;2022-10-16T00:31:38;16.36;75.13
63202;DHT22;49296;48.188;11.566;2022-10-16T00:34:06;16.38;75.00
63202;DHT22;49296;48.188;11.566;2022-10-16T00:36:32;16.36;75.08
63202;DHT22;49296;48.188;11.566;2022-10-16T00:38:58;16.38;75.00
63202;DHT22;49296;48.188;11.566;2022-10-16T00:41:25;16.30;75.17
63202;DHT22;49296;48.188;11.566;2022-10-16T00:43:53;16.30;75.19
63202;DHT22;49296;48.188;11.566;2022-10-16T00:46:20;16.26;75.31
63202;DHT22;49296;48.188;11.566;2022-10-16T00:48:48;16.30;75.16
63202;DHT22;49296;48.188;11.566;2022-10-16T00:51:18;16.33;75.07
63202;DHT22;49296;48.188;11.566;2022-10-16T00:53:45;16.28;75.14
63202;DHT22;49296;48.188;11.566;2022-10-16T00:56:12;16.25;75.09
63202;DHT22;49296;48.188;11.566;2022-10-16T00:58:38;16.22;75.17
63202;DHT22;49296;48.188;11.566;2022-10-16T01:01:05;16.12;75.48
63202;DHT22;49296;48.188;11.566;2022-10-16T01:03:32;16.21;75.14
63202;DHT22;49296;48.188;11.566;2022-10-16T01:06:07;16.25;74.99
63202;DHT22;49296;48.188;11.566;2022-10-16T01:08:39;16.25;75.10
63202;DHT22;49296;48.188;11.566;2022-10-16T01:11:11;16.32;74.97
63202;DHT22;49296;48.188;11.566;2022-10-16T01:13:40;16.16;75.13
63202;DHT22;49296;48.188;11.566;2022-10-16T01:16:07;16.07;75.31
63202;DHT22;49296;48.188;11.566;2022-10-16T01:18:39;16.14;75.13
63202;DHT22;49296;48.188;11.566;2022-10-16T01:21:08;16.18;74.98
63202;DHT22;49296;48.188;11.566;2022-10-16T01:23:38;16.11;75.02
63202;DHT22;49296;48.188;11.566;2022-10-16T01:26:18;16.15;74.98
63202;DHT22;49296;48.188;11.566;2022-10-16T01:28:49;16.15;75.08
63202;DHT22;49296;48.188;11.566;2022-10-16T01:31:18;16.16;74.88
63202;DHT22;49296;48.188;11.566;2022-10-16T01:33:45;16.21;74.82
63202;DHT22;49296;48.188;11.566;2022-10-16T01:36:13;16.19;74.79
63202;DHT22;49296;48.188;11.566;2022-10-16T01:38:42;16.15;74.77
63202;DHT22;49296;48.188;11.566;2022-10-16T01:41:09;16.09;74.90
63202;DHT22;49296;48.188;11.566;2022-10-16T01:43:37;16.05;74.98
63202;DHT22;49296;48.188;11.566;2022-10-16T01:46:08;15.98;75.22
63202;DHT22;49296;48.188;11.566;2022-10-16T01:48:34;15.94;75.18
63202;DHT22;49296;48.188;11.566;2022-10-16T01:51:03;16.00;75.14
63202;DHT22;49296;48.188;11.566;2022-10-16T01:53:30;15.98;75.24
63202;DHT22;49296;48.188;11.566;2022-10-16T01:55:58;15.98;75.14
63202;DHT22;49296;48.188;11.566;2022-10-16T01:58:25;16.02;74.99
63202;DHT22;49296;48.188;11.566;2022-10-16T02:00:51;16.05;74.87
63202;DHT22;49296;48.188;11.566;2022-10-16T02:03:20;16.11;74.66
63202;DHT22;49296;48.188;11.566;2022-10-16T02:05:47;16.09;74.87
63202;DHT22;49296;48.188;11.566;2022-10-16T02:08:15;16.14;74.60
63202;DHT22;49296;48.188;11.566;2022-10-16T02:10:41;16.16;74.54
63202;DHT22;49296;48.188;11.566;2022-10-16T02:13:09;16.18;74.47
63202;DHT22;49296;48.188;11.566;2022-10-16T02:15:36;16.16;74.32
63202;DHT22;49296;48.188;11.566;2022-10-16T02:18:03;16.18;74.27
63202;DHT22;49296;48.188;11.566;2022-10-16T02:20:32;16.15;74.41
63202;DHT22;49296;48.188;11.566;2022-10-16T02:23:00;16.14;74.44
63202;DHT22;49296;48.188;11.566;2022-10-16T02:25:28;16.15;74.44
63202;DHT22;49296;48.188;11.566;2022-10-16T02:27:57;16.01;74.48
63202;DHT22;49296;48.188;11.566;2022-10-16T02:30:25;16.08;74.44
63202;DHT22;49296;48.188;11.566;2022-10-16T02:32:53;16.05;74.41
63202;DHT22;49296;48.188;11.566;2022-10-16T02:35:21;16.04;74.36
63202;DHT22;49296;48.188;11.566;2022-10-16T02:37:49;16.07;74.23
63202;DHT22;49296;48.188;11.566;2022-10-16T02:40:16;16.05;74.33
63202;DHT22;49296;48.188;11.566;2022-10-16T02:42:43;16.09;73.98
63202;DHT22;49296;48.188;11.566;2022-10-16T02:45:10;16.01;74.01
63202;DHT22;49296;48.188;11.566;2022-10-16T02:47:36;16.02;74.08
63202;DHT22;49296;48.188;11.566;2022-10-16T02:50:03;15.93;74.34
63202;DHT22;49296;48.188;11.566;2022-10-16T02:52:30;15.94;74.12
63202;DHT22;49296;48.188;11.566;2022-10-16T02:54:58;15.96;74.10
63202;DHT22;49296;48.188;11.566;2022-10-16T02:57:24;15.98;73.93
63202;DHT22;49296;48.188;11.566;2022-10-16T02:59:50;15.94;74.01
63202;DHT22;49296;48.188;11.566;2022-10-16T03:02:17;15.96;74.08
63202;DHT22;49296;48.188;11.566;2022-10-16T03:04:43;15.96;73.90
63202;DHT22;49296;48.188;11.566;2022-10-16T03:07:10;15.97;73.98
63202;DHT22;49296;48.188;11.566;2022-10-16T03:09:36;15.91;74.04
63202;DHT22;49296;48.188;11.566;2022-10-16T03:12:04;15.88;74.06
63202;DHT22;49296;48.188;11.566;2022-10-16T03:14:31;15.86;74.26
63202;DHT22;49296;48.188;11.566;2022-10-16T03:16:57;15.84;74.11
63202;DHT22;49296;48.188;11.566;2022-10-16T03:19:24;15.80;74.13
63202;DHT22;49296;48.188;11.566;2022-10-16T03:21:50;15.84;74.09
63202;DHT22;49296;48.188;11.566;2022-10-16T03:24:17;15.84;73.97
63202;DHT22;49296;48.188;11.566;2022-10-16T03:26:43;15.87;73.94
63202;DHT22;49296;48.188;11.566;2022-10-16T03:29:11;15.87;73.93
63202;DHT22;49296;48.188;11.566;2022-10-16T03:31:38;15.87;73.92
63202;DHT22;49296;48.188;11.566;2022-10-16T03:34:04;15.80;74.09
63202;DHT22;49296;48.188;11.566;2022-10-16T03:36:31;15.77;74.30
63202;DHT22;49296;48.188;11.566;2022-10-16T03:38:57;15.70;74.39
63202;DHT22;49296;48.188;11.566;2022-10-16T03:41:23;15.80;74.14
63202;DHT22;49296;48.188;11.566;2022-10-16T03:43:50;15.80;74.06
63202;DHT22;49296;48.188;11.566;2022-10-16T03:46:18;15.71;74.18
63202;DHT22;49296;48.188;11.566;2022-10-16T03:48:44;15.70;74.21
63202;DHT22;49296;48.188;11.566;2022-10-16T03:51:11;15.73;74.29
63202;DHT22;49296;48.188;11.566;2022-10-16T03:53:37;15.71;74.28
63202;DHT22;49296;48.188;11.566;2022-10-16T03:56:04;15.73;74.22
63202;DHT22;49296;48.188;11.566;2022-10-16T03:58:30;15.74;74.14
63202;DHT22;49296;48.188;11.566;2022-10-16T04:00:57;15.74;74.35
63202;DHT22;49296;48.188;11.566;2022-10-16T04:03:24;15.66;74.69
63202;DHT22;49296;48.188;11.566;2022-10-16T04:05:51;15.74;74.22
63202;DHT22;49296;48.188;11.566;2022-10-16T04:08:17;15.77;74.07
63202;DHT22;49296;48.188;11.566;2022-10-16T04:10:44;15.86;73.82
63202;DHT22;49296;48.188;11.566;2022-10-16T04:13:10;15.93;73.63
63202;DHT22;49296;48.188;11.566;2022-10-16T04:15:37;15.93;73.69
63202;DHT22;49296;48.188;11.566;2022-10-16T04:18:04;15.88;73.85
63202;DHT22;49296;48.188;11.566;2022-10-16T04:20:32;15.91;73.90
63202;DHT22;49296;48.188;11.566;2022-10-16T04:22:58;15.90;73.77
63202;DHT22;49296;48.188;11.566;2022-10-16T04:25:25;15.91;73.64
63202;DHT22;49296;48.188;11.566;2022-10-16T04:27:52;15.93;73.52
63202;DHT22;49296;48.188;11.566;2022-10-16T04:30:19;15.94;73.51
63202;DHT22;49296;48.188;11.566;2022-10-16T04:32:47;15.94;73.41
63202;DHT22;49296;48.188;11.566;2022-10-16T04:35:14;15.94;73.42
63202;DHT22;49296;48.188;11.566;2022-10-16T04:37:41;15.91;73.48
63202;DHT22;49296;48.188;11.566;2022-10-16T04:40:08;15.87;73.57
63202;DHT22;49296;48.188;11.566;2022-10-16T04:42:35;15.81;73.65
63202;DHT22;49296;48.188;11.566;2022-10-16T04:45:01;15.84;73.40
63202;DHT22;49296;48.188;11.566;2022-10-16T04:47:28;15.74;73.44
63202;DHT22;49296;48.188;11.566;2022-10-16T04:49:54;15.87;73.34
63202;DHT22;49296;48.188;11.566;2022-10-16T04:52:22;15.88;73.20
63202;DHT22;49296;48.188;11.566;2022-10-16T04:54:51;15.93;72.76
63202;DHT22;49296;48.188;11.566;2022-10-16T04:57:17;15.91;72.69
63202;DHT22;49296;48.188;11.566;2022-10-16T04:59:44;15.98;72.85
63202;DHT22;49296;48.188;11.566;2022-10-16T05:02:10;15.97;73.07
63202;DHT22;49296;48.188;11.566;2022-10-16T05:04:36;16.00;72.88
63202;DHT22;49296;48.188;11.566;2022-10-16T05:07:03;16.02;72.81
63202;DHT22;49296;48.188;11.566;2022-10-16T05:09:29;16.08;72.80
63202;DHT22;49296;48.188;11.566;2022-10-16T05:11:57;16.07;72.70
63202;DHT22;49296;48.188;11.566;2022-10-16T05:14:24;15.97;72.54
63202;DHT22;49296;48.188;11.566;2022-10-16T05:16:50;16.01;72.65
63202;DHT22;49296;48.188;11.566;2022-10-16T05:19:16;16.01;72.73
63202;DHT22;49296;48.188;11.566;2022-10-16T05:21:43;16.01;72.95
63202;DHT22;49296;48.188;11.566;2022-10-16T05:24:09;16.01;73.10
63202;DHT22;49296;48.188;11.566;2022-10-16T05:26:36;16.04;73.16
63202;DHT22;49296;48.188;11.566;2022-10-16T05:29:04;16.00;73.25
63202;DHT22;49296;48.188;11.566;2022-10-16T05:31:31;16.02;73.31
63202;DHT22;49296;48.188;11.566;2022-10-16T05:33:58;15.96;73.12
63202;DHT22;49296;48.188;11.566;2022-10-16T05:36:24;15.94;73.06
63202;DHT22;49296;48.188;11.566;2022-10-16T05:38:51;15.96;73.33
63202;DHT22;49296;48.188;11.566;2022-10-16T05:41:17;15.93;73.48
63202;DHT22;49296;48.188;11.566;2022-10-16T05:43:46;15.91;73.54
63202;DHT22;49296;48.188;11.566;2022-10-16T05:46:14;15.90;73.54
63202;DHT22;49296;48.188;11.566;2022-10-16T05:48:41;15.94;73.50
63202;DHT22;49296;48.188;11.566;2022-10-16T05:51:09;15.97;73.47
63202;DHT22;49296;48.188;11.566;2022-10-16T05:53:36;15.96;73.44
63202;DHT22;49296;48.188;11.566;2022-10-16T05:56:03;15.94;73.57
63202;DHT22;49296;48.188;11.566;2022-10-16T05:58:30;15.94;73.49
63202;DHT22;49296;48.188;11.566;2022-10-16T06:00:57;15.91;73.56
63202;DHT22;49296;48.188;11.566;2022-10-16T06:03:25;15.91;73.62
63202;DHT22;49296;48.188;11.566;2022-10-16T06:05:52;15.90;73.66
63202;DHT22;49296;48.188;11.566;2022-10-16T06:08:19;15.91;73.64
63202;DHT22;49296;48.188;11.566;2022-10-16T06:10:47;15.84;73.57
63202;DHT22;49296;48.188;11.566;2022-10-16T06:13:14;15.81;73.69
63202;DHT22;49296;48.188;11.566;2022-10-16T06:15:41;15.83;73.70
63202;DHT22;49296;48.188;11.566;2022-10-16T06:18:08;15.84;73.78
63202;DHT22;49296;48.188;11.566;2022-10-16T06:20:36;15.81;73.79
63202;DHT22;49296;48.188;11.566;2022-10-16T06:23:03;15.77;73.81
63202;DHT22;49296;48.188;11.566;2022-10-16T06:25:30;15.77;73.67
63202;DHT22;49296;48.188;11.566;2022-10-16T06:27:56;15.77;73.78
63202;DHT22;49296;48.188;11.566;2022-10-16T06:30:23;15.81;73.88
63202;DHT22;49296;48.188;11.566;2022-10-16T06:32:49;15.84;73.66
63202;DHT22;49296;48.188;11.566;2022-10-16T06:35:16;15.83;73.90
63202;DHT22;49296;48.188;11.566;2022-10-16T06:37:43;15.81;73.93
63202;DHT22;49296;48.188;11.566;2022-10-16T06:40:10;15.83;73.91
63202;DHT22;49296;48.188;11.566;2022-10-16T06:42:36;15.80;73.77
63202;DHT22;49296;48.188;11.566;2022-10-16T06:45:03;15.76;74.06
63202;DHT22;49296;48.188;11.566;2022-10-16T06:47:30;15.76;74.02
63202;DHT22;49296;48.188;11.566;2022-10-16T06:49:56;15.77;74.00
63202;DHT22;49296;48.188;11.566;2022-10-16T06:52:22;15.77;74.20
63202;DHT22;49296;48.188;11.566;2022-10-16T06:54:50;15.79;74.12
63202;DHT22;49296;48.188;11.566;2022-10-16T06:57:17;15.81;74.06
63202;DHT22;49296;48.188;11.566;2022-10-16T06:59:43;15.76;74.19
63202;DHT22;49296;48.188;11.566;2022-10-16T07:02:10;15.77;74.25
63202;DHT22;49296;48.188;11.566;2022-10-16T07:04:36;15.80;74.23
63202;DHT22;49296;48.188;11.566;2022-10-16T07:07:03;15.83;74.10
63202;DHT22;49296;48.188;11.566;2022-10-16T07:09:29;15.79;74.16
63202;DHT22;49296;48.188;11.566;2022-10-16T07:11:57;15.81;74.10
63202;DHT22;49296;48.188;11.566;2022-10-16T07:14:23;15.84;74.04
63202;DHT22;49296;48.188;11.566;2022-10-16T07:16:50;15.86;74.06
63202;DHT22;49296;48.188;11.566;2022-10-16T07:19:16;15.88;74.00
63202;DHT22;49296;48.188;11.566;2022-10-16T07:21:43;15.87;74.01
63202;DHT22;49296;48.188;11.566;2022-10-16T07:24:11;15.84;74.16
63202;DHT22;49296;48.188;11.566;2022-10-16T07:26:38;15.86;74.11
63202;DHT22;49296;48.188;11.566;2022-10-16T07:29:06;15.83;73.99
63202;DHT22;49296;48.188;11.566;2022-10-16T07:31:33;15.83;73.96
63202;DHT22;49296;48.188;11.566;2022-10-16T07:34:00;15.84;74.15
63202;DHT22;49296;48.188;11.566;2022-10-16T07:36:26;15.93;73.81
63202;DHT22;49296;48.188;11.566;2022-10-16T07:38:53;15.88;73.86
63202;DHT22;49296;48.188;11.566;2022-10-16T07:41:19;15.91;73.78
63202;DHT22;49296;48.188;11.566;2022-10-16T07:43:46;15.93;73.55
63202;DHT22;49296;48.188;11.566;2022-10-16T07:46:15;16.04;73.26
63202;DHT22;49296;48.188;11.566;2022-10-16T07:48:42;16.05;73.28
63202;DHT22;49296;48.188;11.566;2022-10-16T07:51:14;16.12;73.12
63202;DHT22;49296;48.188;11.566;2022-10-16T07:53:41;16.18;72.96
63202;DHT22;49296;48.188;11.566;2022-10-16T07:56:07;16.24;72.79
63202;DHT22;49296;48.188;11.566;2022-10-16T07:58:34;16.30;72.63
63202;DHT22;49296;48.188;11.566;2022-10-16T08:01:03;16.33;72.45
63202;DHT22;49296;48.188;11.566;2022-10-16T08:03:31;16.36;72.34
63202;DHT22;49296;48.188;11.566;2022-10-16T08:05:58;16.39;72.34
63202;DHT22;49296;48.188;11.566;2022-10-16T08:08:25;16.49;72.21
63202;DHT22;49296;48.188;11.566;2022-10-16T08:10:52;16.45;71.98
63202;DHT22;49296;48.188;11.566;2022-10-16T08:13:18;16.55;71.78
63202;DHT22;49296;48.188;11.566;2022-10-16T08:15:45;16.56;71.53
63202;DHT22;49296;48.188;11.566;2022-10-16T08:18:12;16.69;71.33
63202;DHT22;49296;48.188;11.566;2022-10-16T08:20:40;16.76;71.11
63202;DHT22;49296;48.188;11.566;2022-10-16T08:23:07;16.87;70.85
63202;DHT22;49296;48.188;11.566;2022-10-16T08:25:35;16.95;70.73
63202;DHT22;49296;48.188;11.566;2022-10-16T08:28:02;16.95;70.39
63202;DHT22;49296;48.188;11.566;2022-10-16T08:30:29;17.04;69.94
63202;DHT22;49296;48.188;11.566;2022-10-16T08:32:55;17.11;69.51
63202;DHT22;49296;48.188;11.566;2022-10-16T08:35:23;17.22;68.94
63202;DHT22;49296;48.188;11.566;2022-10-16T08:37:51;17.30;68.60
63202;DHT22;49296;48.188;11.566;2022-10-16T08:40:18;17.43;68.31
63202;DHT22;49296;48.188;11.566;2022-10-16T08:42:55;17.50;68.12
63202;DHT22;49296;48.188;11.566;2022-10-16T08:45:30;17.63;67.62
63202;DHT22;49296;48.188;11.566;2022-10-16T08:48:06;17.78;66.63
63202;DHT22;49296;48.188;11.566;2022-10-16T08:50:36;17.92;65.84
63202;DHT22;49296;48.188;11.566;2022-10-16T08:53:05;18.06;65.37
63202;DHT22;49296;48.188;11.566;2022-10-16T08:55:33;18.22;64.37
63202;DHT22;49296;48.188;11.566;2022-10-16T08:58:07;18.26;64.79
63202;DHT22;49296;48.188;11.566;2022-10-16T09:00:35;18.30;64.08
63202;DHT22;49296;48.188;11.566;2022-10-16T09:03:04;18.43;63.55
63202;DHT22;49296;48.188;11.566;2022-10-16T09:05:40;18.56;63.40
63202;DHT22;49296;48.188;11.566;2022-10-16T09:08:12;18.63;62.95
63202;DHT22;49296;48.188;11.566;2022-10-16T09:10:45;18.70;62.77
63202;DHT22;49296;48.188;11.566;2022-10-16T09:13:18;18.77;62.35
63202;DHT22;49296;48.188;11.566;2022-10-16T09:15:47;18.77;62.53
63202;DHT22;49296;48.188;11.566;2022-10-16T09:18:18;18.78;62.39
63202;DHT22;49296;48.188;11.566;2022-10-16T09:20:49;18.89;62.03
63202;DHT22;49296;48.188;11.566;2022-10-16T09:23:19;19.02;62.23
63202;DHT22;49296;48.188;11.566;2022-10-16T09:25:47;19.02;62.29
63202;DHT22;49296;48.188;11.566;2022-10-16T09:28:14;19.06;62.51
63202;DHT22;49296;48.188;11.566;2022-10-16T09:30:41;19.05;62.03
63202;DHT22;49296;48.188;11.566;2022-10-16T09:33:08;19.15;60.91
63202;DHT22;49296;48.188;11.566;2022-10-16T09:35:36;19.18;60.95
63202;DHT22;49296;48.188;11.566;2022-10-16T09:38:03;19.23;60.70
63202;DHT22;49296;48.188;11.566;2022-10-16T09:40:33;19.25;60.88
63202;DHT22;49296;48.188;11.566;2022-10-16T09:43:07;19.34;60.85
63202;DHT22;49296;48.188;11.566;2022-10-16T09:45:39;19.42;60.60
63202;DHT22;49296;48.188;11.566;2022-10-16T09:48:10;19.46;60.53
63202;DHT22;49296;48.188;11.566;2022-10-16T09:50:37;19.42;60.72
63202;DHT22;49296;48.188;11.566;2022-10-16T09:53:04;19.51;60.55
63202;DHT22;49296;48.188;11.566;2022-10-16T09:55:32;19.60;60.00
63202;DHT22;49296;48.188;11.566;2022-10-16T09:57:59;19.74;58.23
63202;DHT22;49296;48.188;11.566;2022-10-16T10:00:25;19.84;58.29
63202;DHT22;49296;48.188;11.566;2022-10-16T10:02:52;19.85;58.63
63202;DHT22;49296;48.188;11.566;2022-10-16T10:05:20;19.84;58.16
63202;DHT22;49296;48.188;11.566;2022-10-16T10:07:52;19.85;58.47
63202;DHT22;49296;48.188;11.566;2022-10-16T10:10:20;19.86;58.75
63202;DHT22;49296;48.188;11.566;2022-10-16T10:12:48;19.96;58.08
63202;DHT22;49296;48.188;11.566;2022-10-16T10:15:15;19.94;58.63
63202;DHT22;49296;48.188;11.566;2022-10-16T10:17:47;19.98;59.49
63202;DHT22;49296;48.188;11.566;2022-10-16T10:20:18;19.95;59.32
63202;DHT22;49296;48.188;11.566;2022-10-16T10:22:47;19.96;58.87
63202;DHT22;49296;48.188;11.566;2022-10-16T10:25:15;19.95;59.60
63202;DHT22;49296;48.188;11.566;2022-10-16T10:27:50;19.92;58.99
63202;DHT22;49296;48.188;11.566;2022-10-16T10:30:19;19.92;59.04
63202;DHT22;49296;48.188;11.566;2022-10-16T10:32:49;20.08;57.99
63202;DHT22;49296;48.188;11.566;2022-10-16T10:35:18;20.04;57.61
63202;DHT22;49296;48.188;11.566;2022-10-16T10:37:55;20.12;57.29
63202;DHT22;49296;48.188;11.566;2022-10-16T10:40:28;20.15;56.86
63202;DHT22;49296;48.188;11.566;2022-10-16T10:42:58;20.19;56.70
63202;DHT22;49296;48.188;11.566;2022-10-16T10:45:27;20.26;56.95
63202;DHT22;49296;48.188;11.566;2022-10-16T10:50:39;20.70;54.73
63202;DHT22;49296;48.188;11.566;2022-10-16T10:53:10;20.95;53.54
63202;DHT22;49296;48.188;11.566;2022-10-16T10:55:39;21.09;53.36
63202;DHT22;49296;48.188;11.566;2022-10-16T11:00:50;21.20;51.98
63202;DHT22;49296;48.188;11.566;2022-10-16T11:03:22;21.25;52.53
63202;DHT22;49296;48.188;11.566;2022-10-16T11:05:50;21.32;50.86
63202;DHT22;49296;48.188;11.566;2022-10-16T11:08:19;21.43;51.25
63202;DHT22;49296;48.188;11.566;2022-10-16T11:10:49;21.42;50.97
63202;DHT22;49296;48.188;11.566;2022-10-16T11:13:19;21.46;50.68
63202;DHT22;49296;48.188;11.566;2022-10-16T11:15:50;21.50;49.87
63202;DHT22;49296;48.188;11.566;2022-10-16T11:18:19;21.62;50.07
63202;DHT22;49296;48.188;11.566;2022-10-16T11:20:49;21.64;49.92
63202;DHT22;49296;48.188;11.566;2022-10-16T11:23:18;21.88;48.92
63202;DHT22;49296;48.188;11.566;2022-10-16T11:25:47;21.89;49.25
63202;DHT22;49296;48.188;11.566;2022-10-16T11:28:15;21.92;48.34
63202;DHT22;49296;48.188;11.566;2022-10-16T11:30:44;21.98;48.09
63202;DHT22;49296;48.188;11.566;2022-10-16T11:33:27;22.02;48.31
63202;DHT22;49296;48.188;11.566;2022-10-16T11:35:58;22.16;48.31
63202;DHT22;49296;48.188;11.566;2022-10-16T11:38:27;22.16;47.68
63202;DHT22;49296;48.188;11.566;2022-10-16T11:40:57;22.23;47.91
63202;DHT22;49296;48.188;11.566;2022-10-16T11:43:26;22.23;48.20
63202;DHT22;49296;48.188;11.566;2022-10-16T11:45:55;22.35;47.93
63202;DHT22;49296;48.188;11.566;2022-10-16T11:48:24;22.44;48.21
63202;DHT22;49296;48.188;11.566;2022-10-16T11:50:54;22.41;47.56
63202;DHT22;49296;48.188;11.566;2022-10-16T11:53:24;22.53;45.70
63202;DHT22;49296;48.188;11.566;2022-10-16T11:55:55;22.63;45.59
63202;DHT22;49296;48.188;11.566;2022-10-16T11:58:22;22.67;46.24
63202;DHT22;49296;48.188;11.566;2022-10-16T12:00:53;22.75;46.19
63202;DHT22;49296;48.188;11.566;2022-10-16T12:03:24;22.78;46.28
63202;DHT22;49296;48.188;11.566;2022-10-16T12:06:01;22.76;46.13
63202;DHT22;49296;48.188;11.566;2022-10-16T12:08:31;22.92;46.31
63202;DHT22;49296;48.188;11.566;2022-10-16T12:11:06;22.92;45.88
63202;DHT22;49296;48.188;11.566;2022-10-16T12:13:33;22.94;46.50
63202;DHT22;49296;48.188;11.566;2022-10-16T12:16:04;22.95;46.23
63202;DHT22;49296;48.188;11.566;2022-10-16T12:18:30;22.95;46.91
63202;DHT22;49296;48.188;11.566;2022-10-16T12:20:57;22.98;46.85
63202;DHT22;49296;48.188;11.566;2022-10-16T12:23:31;23.12;47.06
63202;DHT22;49296;48.188;11.566;2022-10-16T12:25:58;23.09;46.90
63202;DHT22;49296;48.188;11.566;2022-10-16T12:28:26;23.13;46.41
63202;DHT22;49296;48.188;11.566;2022-10-16T12:30:53;23.22;47.06
63202;DHT22;49296;48.188;11.566;2022-10-16T12:33:21;23.22;47.55
63202;DHT22;49296;48.188;11.566;2022-10-16T12:35:48;23.30;47.84
63202;DHT22;49296;48.188;11.566;2022-10-16T12:38:16;23.53;44.84
63202;DHT22;49296;48.188;11.566;2022-10-16T12:40:44;23.64;44.80
63202;DHT22;49296;48.188;11.566;2022-10-16T12:43:23;23.72;43.99
63202;DHT22;49296;48.188;11.566;2022-10-16T12:45:58;23.79;44.11
63202;DHT22;49296;48.188;11.566;2022-10-16T12:48:25;23.78;44.46
63202;DHT22;49296;48.188;11.566;2022-10-16T12:50:51;23.79;45.41
63202;DHT22;49296;48.188;11.566;2022-10-16T12:53:18;23.86;45.03
63202;DHT22;49296;48.188;11.566;2022-10-16T12:55:50;24.05;44.85
63202;DHT22;49296;48.188;11.566;2022-10-16T12:58:31;24.12;45.02
63202;DHT22;49296;48.188;11.566;2022-10-16T13:01:02;24.20;44.50
63202;DHT22;49296;48.188;11.566;2022-10-16T13:03:53;24.30;42.69
63202;DHT22;49296;48.188;11.566;2022-10-16T13:06:28;24.29;42.97
63202;DHT22;49296;48.188;11.566;2022-10-16T13:09:02;24.33;43.53
63202;DHT22;49296;48.188;11.566;2022-10-16T13:11:32;24.36;43.02
63202;DHT22;49296;48.188;11.566;2022-10-16T13:14:09;24.50;43.30
63202;DHT22;49296;48.188;11.566;2022-10-16T13:16:45;24.49;42.42
63202;DHT22;49296;48.188;11.566;2022-10-16T13:19:17;24.50;43.08
63202;DHT22;49296;48.188;11.566;2022-10-16T13:21:46;24.60;43.61
63202;DHT22;49296;48.188;11.566;2022-10-16T13:24:19;24.58;42.64
63202;DHT22;49296;48.188;11.566;2022-10-16T13:26:52;24.61;42.65
63202;DHT22;49296;48.188;11.566;2022-10-16T13:29:19;24.49;41.60
63202;DHT22;49296;48.188;11.566;2022-10-16T13:31:46;24.60;41.79
63202;DHT22;49296;48.188;11.566;2022-10-16T13:34:14;24.60;42.27
63202;DHT22;49296;48.188;11.566;2022-10-16T13:36:45;24.58;42.88
63202;DHT22;49296;48.188;11.566;2022-10-16T13:39:13;24.50;43.11
63202;DHT22;49296;48.188;11.566;2022-10-16T13:41:39;24.46;43.24
63202;DHT22;49296;48.188;11.566;2022-10-16T13:44:11;24.37;43.59
63202;DHT22;49296;48.188;11.566;2022-10-16T13:46:39;24.16;44.05
63202;DHT22;49296;48.188;11.566;2022-10-16T13:49:10;24.20;43.21
63202;DHT22;49296;48.188;11.566;2022-10-16T13:51:37;24.23;43.25
63202;DHT22;49296;48.188;11.566;2022-10-16T13:54:04;24.19;43.55
63202;DHT22;49296;48.188;11.566;2022-10-16T13:56:31;24.19;43.20
63202;DHT22;49296;48.188;11.566;2022-10-16T13:58:59;24.13;44.01
63202;DHT22;49296;48.188;11.566;2022-10-16T14:01:27;24.10;43.88
63202;DHT22;49296;48.188;11.566;2022-10-16T14:03:59;24.05;43.77
63202;DHT22;49296;48.188;11.566;2022-10-16T14:06:27;24.16;44.07
63202;DHT22;49296;48.188;11.566;2022-10-16T14:08:54;24.17;44.15
63202;DHT22;49296;48.188;11.566;2022-10-16T14:11:22;24.10;44.28
63202;DHT22;49296;48.188;11.566;2022-10-16T14:13:49;24.15;44.34
63202;DHT22;49296;48.188;11.566;2022-10-16T14:16:16;24.17;44.93
63202;DHT22;49296;48.188;11.566;2022-10-16T14:18:46;24.22;41.85
63202;DHT22;49296;48.188;11.566;2022-10-16T14:21:15;24.23;42.35
63202;DHT22;49296;48.188;11.566;2022-10-16T14:23:42;24.17;42.83
63202;DHT22;49296;48.188;11.566;2022-10-16T14:26:13;24.30;43.60
63202;DHT22;49296;48.188;11.566;2022-10-16T14:28:40;24.39;43.55
63202;DHT22;49296;48.188;11.566;2022-10-16T14:31:20;24.39;43.23
63202;DHT22;49296;48.188;11.566;2022-10-16T14:33:51;24.40;43.20
63202;DHT22;49296;48.188;11.566;2022-10-16T14:36:17;24.53;43.53
63202;DHT22;49296;48.188;11.566;2022-10-16T14:38:48;24.50;44.10
63202;DHT22;49296;48.188;11.566;2022-10-16T14:41:15;24.43;44.37
63202;DHT22;49296;48.188;11.566;2022-10-16T14:43:49;24.46;43.82
63202;DHT22;49296;48.188;11.566;2022-10-16T14:46:16;24.46;43.24
63202;DHT22;49296;48.188;11.566;2022-10-16T14:48:44;24.22;43.38
63202;DHT22;49296;48.188;11.566;2022-10-16T14:51:13;24.24;43.64
63202;DHT22;49296;48.188;11.566;2022-10-16T14:53:40;24.29;43.65
63202;DHT22;49296;48.188;11.566;2022-10-16T14:56:07;24.29;43.35
63202;DHT22;49296;48.188;11.566;2022-10-16T14:58:33;24.27;43.40
63202;DHT22;49296;48.188;11.566;2022-10-16T15:01:01;24.06;44.25
63202;DHT22;49296;48.188;11.566;2022-10-16T15:03:27;23.99;45.26
63202;DHT22;49296;48.188;11.566;2022-10-16T15:05:53;23.92;46.11
63202;DHT22;49296;48.188;11.566;2022-10-16T15:08:21;23.84;46.67
63202;DHT22;49296;48.188;11.566;2022-10-16T15:10:48;23.77;47.65
63202;DHT22;49296;48.188;11.566;2022-10-16T15:13:14;23.71;47.98
63202;DHT22;49296;48.188;11.566;2022-10-16T15:15:42;23.61;48.39
63202;DHT22;49296;48.188;11.566;2022-10-16T15:18:08;23.61;48.74
63202;DHT22;49296;48.188;11.566;2022-10-16T15:20:35;23.50;49.32
63202;DHT22;49296;48.188;11.566;2022-10-16T15:23:03;23.47;49.53
63202;DHT22;49296;48.188;11.566;2022-10-16T15:25:32;23.46;49.81
63202;DHT22;49296;48.188;11.566;2022-10-16T15:27:59;23.36;50.30